Blue Star Naxos — SZUI — position and weather

sailwx.info

Track history (hours):
 
Tides and Currents Weather Stations Pressure Air Temp Water Temp Dewpoint Dewpoint Depression Visibility Wind Speed Wind Dir Waves Ship Positions

Blue Star Naxos

Last reported at 2015-Jul-30 07:33 UTC. Time now 2015-Jul-30 08:18 UTC.
Position N 37°14' E 024°54'.

Length 124 m; draft 5 m.

Type: Passenger vessel. MMSI: 239923000.

Date/timePositionNaut miles runAvg speedWind from/ knotsBaromVisibWave heightAir tempDewpointWater temp
2015-Jul-30 07:33N 37°14' E 024°54'6621.9
2015-Jul-30 04:34N 37°44' E 023°40'1312.6
2015-Jul-30 03:34N 37°57' E 023°38'0 0.0
2015-Jul-30 02:33N 37°57' E 023°38'0 0.0
2015-Jul-30 01:33N 37°57' E 023°38'0 0.0
2015-Jul-30 00:33N 37°57' E 023°38'0 0.0
2015-Jul-29 23:33N 37°57' E 023°38'0 0.0
2015-Jul-29 22:33N 37°57' E 023°38'0 0.0
2015-Jul-29 21:33N 37°57' E 023°38'0 0.0
2015-Jul-29 20:33N 37°57' E 023°38'0 0.0
2015-Jul-29 19:33N 37°57' E 023°38'0 0.0
2015-Jul-29 18:33N 37°57' E 023°38'0 0.0
2015-Jul-29 17:33N 37°57' E 023°38'3 3.3
2015-Jul-29 16:34N 37°54' E 023°39'2020.3
2015-Jul-29 15:33N 37°38' E 023°55'4422.3
2015-Jul-29 13:34N 37°31' E 024°50'7 7.2
2015-Jul-29 12:33N 37°26' E 024°57'1313.4
2015-Jul-29 11:34N 37°30' E 025°13'5 5.3
2015-Jul-29 10:34N 37°28' E 025°19'9 9.1
2015-Jul-29 09:33N 37°32' E 025°09'1211.5
2015-Jul-29 08:32N 37°26' E 024°57'5619.0
2015-Jul-29 05:33N 37°39' E 023°47'1919.1
2015-Jul-29 04:34N 37°57' E 023°38'0 0.3
2015-Jul-29 03:33N 37°57' E 023°38'0 0.0
2015-Jul-29 02:33N 37°57' E 023°38'3 2.5
2015-Jul-29 01:34N 37°55' E 023°37'1818.0
2015-Jul-29 00:33N 37°39' E 023°50'2018.9
2015-Jul-28 23:31N 37°32' E 024°13'3819.2
2015-Jul-28 21:33N 37°14' E 024°54'1414.3
2015-Jul-28 20:33N 37°05' E 025°09'1110.6
2015-Jul-28 19:34N 37°06' E 025°22'7 7.1
2015-Jul-28 18:33N 36°60' E 025°19'1211.6
2015-Jul-28 17:33N 36°52' E 025°31'8 7.8
2015-Jul-28 16:33N 36°55' E 025°40'9 2.3
2015-Jul-28 12:30N 36°50' E 025°50'1313.3
2015-Jul-28 11:33N 36°53' E 025°35'9 8.3
2015-Jul-28 10:31N 36°54' E 025°24'1212.5
2015-Jul-28 09:33N 37°06' E 025°22'1110.7
2015-Jul-28 08:33N 37°05' E 025°09'1413.9
2015-Jul-28 07:33N 37°13' E 024°55'5222.0
2015-Jul-28 05:12N 37°36' E 023°56'1422.1
2015-Jul-28 04:33N 37°43' E 023°41'1413.5
2015-Jul-28 03:33N 37°57' E 023°38'0 0.0
2015-Jul-28 02:33N 37°57' E 023°38'0 0.0
2015-Jul-28 01:33N 37°57' E 023°38'0 0.0
2015-Jul-28 00:33N 37°57' E 023°38'0 0.0
2015-Jul-27 23:33N 37°57' E 023°38'0 0.0
2015-Jul-27 22:34N 37°57' E 023°38'0 0.0
2015-Jul-27 21:33N 37°57' E 023°38'0 0.0
2015-Jul-27 20:33N 37°57' E 023°38'0 0.0
2015-Jul-27 19:33N 37°57' E 023°38'0 0.0
2015-Jul-27 18:33N 37°57' E 023°38'0 0.0
2015-Jul-27 17:34N 37°57' E 023°38'5 4.9
2015-Jul-27 16:33N 37°52' E 023°39'2221.0
2015-Jul-27 15:31N 37°37' E 023°59'4522.2
2015-Jul-27 13:30N 37°31' E 024°55'5 5.4
2015-Jul-27 12:33N 37°26' E 024°58'1312.7
2015-Jul-27 11:33N 37°29' E 025°14'5 4.6
2015-Jul-27 10:33N 37°28' E 025°19'7 7.1
2015-Jul-27 09:33N 37°31' E 025°11'1212.2
2015-Jul-27 08:33N 37°26' E 024°57'5618.9
2015-Jul-27 05:33N 37°39' E 023°47'1919.3
2015-Jul-27 04:33N 37°57' E 023°38'0 0.3
2015-Jul-27 03:33N 37°57' E 023°38'0 0.0
2015-Jul-27 02:33N 37°57' E 023°38'2 1.7
2015-Jul-27 01:33N 37°56' E 023°37'1918.6
2015-Jul-27 00:33N 37°39' E 023°49'4619.2
2015-Jul-26 22:09N 37°21' E 024°42'1220.2
2015-Jul-26 21:33N 37°14' E 024°54'1514.5
2015-Jul-26 20:32N 37°05' E 025°09'1010.4
2015-Jul-26 19:34N 37°07' E 025°22'9 9.0
2015-Jul-26 18:33N 36°58' E 025°21'10 9.6
2015-Jul-26 17:33N 36°52' E 025°31'8 8.0
2015-Jul-26 16:33N 36°55' E 025°40'9 2.1
2015-Jul-26 12:21N 36°50' E 025°49'1113.6
2015-Jul-26 11:32N 36°55' E 025°37'8 7.7
2015-Jul-26 10:33N 36°52' E 025°28'1515.6
2015-Jul-26 09:34N 37°06' E 025°21'1111.1
2015-Jul-26 08:33N 37°06' E 025°07'1312.7
2015-Jul-26 07:33N 37°13' E 024°54'6622.0
2015-Jul-26 04:34N 37°43' E 023°40'1413.6
2015-Jul-26 03:33N 37°57' E 023°38'0 0.0
2015-Jul-26 02:33N 37°57' E 023°38'0 0.0
2015-Jul-26 01:33N 37°57' E 023°38'0 0.0
2015-Jul-26 00:33N 37°57' E 023°38'0 0.0
2015-Jul-25 23:33N 37°57' E 023°38'0 0.0
2015-Jul-25 22:33N 37°57' E 023°38'0 0.0
2015-Jul-25 21:34N 37°57' E 023°38'0 0.0
2015-Jul-25 20:33N 37°57' E 023°38'0 0.0
2015-Jul-25 19:33N 37°57' E 023°38'0 0.0
2015-Jul-25 18:33N 37°57' E 023°38'0 0.0
2015-Jul-25 17:33N 37°57' E 023°38'3 3.2
2015-Jul-25 16:33N 37°54' E 023°38'2120.9
2015-Jul-25 15:33N 37°38' E 023°55'4522.3
2015-Jul-25 13:33N 37°31' E 024°51'7 6.6
2015-Jul-25 12:34N 37°26' E 024°57'1313.4
2015-Jul-25 11:34N 37°30' E 025°13'6 5.8
2015-Jul-25 10:34N 37°28' E 025°19'9 9.1
2015-Jul-25 09:33N 37°32' E 025°09'1211.8
2015-Jul-25 08:33N 37°26' E 024°57'5719.0
2015-Jul-25 05:33N 37°39' E 023°46'1918.7
2015-Jul-25 04:33N 37°57' E 023°38'0 0.0
2015-Jul-25 03:33N 37°57' E 023°38'0 0.0
2015-Jul-25 02:33N 37°57' E 023°38'0 0.0
2015-Jul-25 01:33N 37°57' E 023°38'0 0.0
2015-Jul-25 00:33N 37°57' E 023°38'0 0.0
2015-Jul-24 23:33N 37°57' E 023°38'0 0.0
2015-Jul-24 22:33N 37°57' E 023°38'0 0.0
2015-Jul-24 21:33N 37°57' E 023°38'0 0.0
2015-Jul-24 20:33N 37°57' E 023°38'0 0.0
2015-Jul-24 19:33N 37°57' E 023°38'0 0.0
2015-Jul-24 18:33N 37°57' E 023°38'0 0.0
2015-Jul-24 17:33N 37°57' E 023°38'3 3.0
2015-Jul-24 16:33N 37°54' E 023°38'2121.1
2015-Jul-24 15:33N 37°38' E 023°55'4723.0
2015-Jul-24 13:30N 37°31' E 024°54'6 5.8
2015-Jul-24 12:33N 37°26' E 024°57'1413.7
2015-Jul-24 11:33N 37°30' E 025°14'5 4.7
2015-Jul-24 10:33N 37°28' E 025°19'9 9.2
2015-Jul-24 09:33N 37°32' E 025°09'1211.7
2015-Jul-24 08:33N 37°26' E 024°57'5719.0
2015-Jul-24 05:34N 37°39' E 023°46'1918.9
2015-Jul-24 04:33N 37°57' E 023°38'0 0.1
2015-Jul-24 03:33N 37°57' E 023°38'0 0.0
2015-Jul-24 02:33N 37°57' E 023°38'0 0.3
2015-Jul-24 01:33N 37°57' E 023°38'1717.4
2015-Jul-24 00:33N 37°41' E 023°47'2219.9
2015-Jul-23 23:28N 37°32' E 024°12'3719.4
2015-Jul-23 21:33N 37°14' E 024°53'1515.0
2015-Jul-23 20:32N 37°05' E 025°09'1010.5
2015-Jul-23 19:33N 37°07' E 025°22'7 7.1
2015-Jul-23 18:33N 36°60' E 025°19'1211.0
2015-Jul-23 17:29N 36°52' E 025°31'8 8.7
2015-Jul-23 16:33N 36°55' E 025°40'8 2.4
2015-Jul-23 13:13N 36°50' E 025°48'1116.7
2015-Jul-23 12:33N 36°56' E 025°36'6 5.8
2015-Jul-23 11:33N 36°52' E 025°31'1211.9
2015-Jul-23 10:33N 37°00' E 025°20'7 6.5
2015-Jul-23 09:33N 37°06' E 025°22'1010.2
2015-Jul-23 08:32N 37°05' E 025°09'2020.6
2015-Jul-23 07:34N 37°17' E 024°48'5122.1
2015-Jul-23 05:14N 37°38' E 023°49'1521.3
2015-Jul-23 04:33N 37°49' E 023°37'8 7.7
2015-Jul-23 03:33N 37°57' E 023°38'0 0.0
2015-Jul-23 02:33N 37°57' E 023°38'0 0.0
2015-Jul-23 01:33N 37°57' E 023°38'0 0.0
2015-Jul-23 00:33N 37°57' E 023°38'0 0.0
2015-Jul-22 23:33N 37°57' E 023°38'0 0.0
2015-Jul-22 22:33N 37°57' E 023°38'0 0.0
2015-Jul-22 21:33N 37°57' E 023°38'0 0.0
2015-Jul-22 20:33N 37°57' E 023°38'0 0.0
2015-Jul-22 19:33N 37°57' E 023°38'0 0.0
2015-Jul-22 18:33N 37°57' E 023°38'0 0.0
2015-Jul-22 17:31N 37°57' E 023°38'5 4.7
2015-Jul-22 16:34N 37°52' E 023°39'2220.8
2015-Jul-22 15:31N 37°37' E 023°59'4321.8
2015-Jul-22 13:33N 37°31' E 024°52'7 6.8
2015-Jul-22 12:33N 37°26' E 024°58'1313.2
2015-Jul-22 11:33N 37°29' E 025°14'5 4.7
2015-Jul-22 10:33N 37°28' E 025°19'9 9.2
2015-Jul-22 09:33N 37°32' E 025°09'1211.8
2015-Jul-22 08:33N 37°26' E 024°57'5718.9
2015-Jul-22 05:33N 37°39' E 023°47'1919.2
2015-Jul-22 04:33N 37°57' E 023°38'0 0.2
2015-Jul-22 03:33N 37°57' E 023°38'0 0.0
2015-Jul-22 02:33N 37°57' E 023°38'2 2.0
2015-Jul-22 01:33N 37°55' E 023°37'1918.5
2015-Jul-22 00:33N 37°39' E 023°49'2119.6
2015-Jul-21 23:30N 37°31' E 024°13'2518.6
2015-Jul-21 22:10N 37°21' E 024°42'1219.6
2015-Jul-21 21:33N 37°14' E 024°54'1514.8
2015-Jul-21 20:33N 37°05' E 025°09'1010.2
2015-Jul-21 19:33N 37°07' E 025°22'7 7.2
2015-Jul-21 18:34N 36°60' E 025°20'1111.1
2015-Jul-21 17:33N 36°52' E 025°31'9 8.9
2015-Jul-21 16:30N 36°54' E 025°42'8 1.8
2015-Jul-21 12:13N 36°50' E 025°50'1218.6
2015-Jul-21 11:33N 36°56' E 025°36'9 7.1
2015-Jul-21 10:17N 36°54' E 025°25'1317.4
2015-Jul-21 09:33N 37°06' E 025°22'1111.4
2015-Jul-21 08:33N 37°06' E 025°08'1312.6
2015-Jul-21 07:34N 37°13' E 024°55'6621.9
2015-Jul-21 04:33N 37°43' E 023°41'1413.9
2015-Jul-21 03:33N 37°57' E 023°38'0 0.0
2015-Jul-21 02:33N 37°57' E 023°38'0 0.0
2015-Jul-21 01:33N 37°57' E 023°38'0 0.0
2015-Jul-21 00:33N 37°57' E 023°38'0 0.0
2015-Jul-20 23:33N 37°57' E 023°38'0 0.0
2015-Jul-20 22:33N 37°57' E 023°38'0 0.0
2015-Jul-20 21:33N 37°57' E 023°38'0 0.0
2015-Jul-20 20:33N 37°57' E 023°38'0 0.0
2015-Jul-20 19:33N 37°57' E 023°38'0 0.0
2015-Jul-20 18:33N 37°57' E 023°38'0 0.0
2015-Jul-20 17:33N 37°57' E 023°38'6 5.7
2015-Jul-20 16:33N 37°51' E 023°40'6420.9
2015-Jul-20 13:29N 37°30' E 024°56'4 4.5
2015-Jul-20 12:33N 37°26' E 024°58'1313.5
2015-Jul-20 11:33N 37°29' E 025°14'4 4.3
2015-Jul-20 10:33N 37°28' E 025°19'9 9.1
2015-Jul-20 09:33N 37°32' E 025°09'1211.7
2015-Jul-20 08:33N 37°26' E 024°57'  
Track history (hours):
 
Tides and Currents Weather Stations Pressure Air Temp Water Temp Dewpoint Dewpoint Depression Visibility Wind Speed Wind Dir Waves Ship Positions

Blue Star Naxos

Last reported at 2015-Jul-30 07:33 UTC. Time now 2015-Jul-30 08:18 UTC.
Position N 37°14' E 024°54'.

Length 124 m; draft 5 m.

Type: Passenger vessel. MMSI: 239923000.

Date/timePositionNaut miles runAvg speedWind from/ knotsBaromVisibWave heightAir tempDewpointWater temp
2015-Jul-30 07:33N 37°14' E 024°54'6621.9
2015-Jul-30 04:34N 37°44' E 023°40'1312.6
2015-Jul-30 03:34N 37°57' E 023°38'0 0.0
2015-Jul-30 02:33N 37°57' E 023°38'0 0.0
2015-Jul-30 01:33N 37°57' E 023°38'0 0.0
2015-Jul-30 00:33N 37°57' E 023°38'0 0.0
2015-Jul-29 23:33N 37°57' E 023°38'0 0.0
2015-Jul-29 22:33N 37°57' E 023°38'0 0.0
2015-Jul-29 21:33N 37°57' E 023°38'0 0.0
2015-Jul-29 20:33N 37°57' E 023°38'0 0.0
2015-Jul-29 19:33N 37°57' E 023°38'0 0.0
2015-Jul-29 18:33N 37°57' E 023°38'0 0.0
2015-Jul-29 17:33N 37°57' E 023°38'3 3.3
2015-Jul-29 16:34N 37°54' E 023°39'2020.3
2015-Jul-29 15:33N 37°38' E 023°55'4422.3
2015-Jul-29 13:34N 37°31' E 024°50'7 7.2
2015-Jul-29 12:33N 37°26' E 024°57'1313.4
2015-Jul-29 11:34N 37°30' E 025°13'5 5.3
2015-Jul-29 10:34N 37°28' E 025°19'9 9.1
2015-Jul-29 09:33N 37°32' E 025°09'1211.5
2015-Jul-29 08:32N 37°26' E 024°57'5619.0
2015-Jul-29 05:33N 37°39' E 023°47'1919.1
2015-Jul-29 04:34N 37°57' E 023°38'0 0.3
2015-Jul-29 03:33N 37°57' E 023°38'0 0.0
2015-Jul-29 02:33N 37°57' E 023°38'3 2.5
2015-Jul-29 01:34N 37°55' E 023°37'1818.0
2015-Jul-29 00:33N 37°39' E 023°50'2018.9
2015-Jul-28 23:31N 37°32' E 024°13'3819.2
2015-Jul-28 21:33N 37°14' E 024°54'1414.3
2015-Jul-28 20:33N 37°05' E 025°09'1110.6
2015-Jul-28 19:34N 37°06' E 025°22'7 7.1
2015-Jul-28 18:33N 36°60' E 025°19'1211.6
2015-Jul-28 17:33N 36°52' E 025°31'8 7.8
2015-Jul-28 16:33N 36°55' E 025°40'9 2.3
2015-Jul-28 12:30N 36°50' E 025°50'1313.3
2015-Jul-28 11:33N 36°53' E 025°35'9 8.3
2015-Jul-28 10:31N 36°54' E 025°24'1212.5
2015-Jul-28 09:33N 37°06' E 025°22'1110.7
2015-Jul-28 08:33N 37°05' E 025°09'1413.9
2015-Jul-28 07:33N 37°13' E 024°55'5222.0
2015-Jul-28 05:12N 37°36' E 023°56'1422.1
2015-Jul-28 04:33N 37°43' E 023°41'1413.5
2015-Jul-28 03:33N 37°57' E 023°38'0 0.0
2015-Jul-28 02:33N 37°57' E 023°38'0 0.0
2015-Jul-28 01:33N 37°57' E 023°38'0 0.0
2015-Jul-28 00:33N 37°57' E 023°38'0 0.0
2015-Jul-27 23:33N 37°57' E 023°38'0 0.0
2015-Jul-27 22:34N 37°57' E 023°38'0 0.0
2015-Jul-27 21:33N 37°57' E 023°38'0 0.0
2015-Jul-27 20:33N 37°57' E 023°38'0 0.0
2015-Jul-27 19:33N 37°57' E 023°38'0 0.0
2015-Jul-27 18:33N 37°57' E 023°38'0 0.0
2015-Jul-27 17:34N 37°57' E 023°38'5 4.9
2015-Jul-27 16:33N 37°52' E 023°39'2221.0
2015-Jul-27 15:31N 37°37' E 023°59'4522.2
2015-Jul-27 13:30N 37°31' E 024°55'5 5.4
2015-Jul-27 12:33N 37°26' E 024°58'1312.7
2015-Jul-27 11:33N 37°29' E 025°14'5 4.6
2015-Jul-27 10:33N 37°28' E 025°19'7 7.1
2015-Jul-27 09:33N 37°31' E 025°11'1212.2
2015-Jul-27 08:33N 37°26' E 024°57'5618.9
2015-Jul-27 05:33N 37°39' E 023°47'1919.3
2015-Jul-27 04:33N 37°57' E 023°38'0 0.3
2015-Jul-27 03:33N 37°57' E 023°38'0 0.0
2015-Jul-27 02:33N 37°57' E 023°38'2 1.7
2015-Jul-27 01:33N 37°56' E 023°37'1918.6
2015-Jul-27 00:33N 37°39' E 023°49'4619.2
2015-Jul-26 22:09N 37°21' E 024°42'1220.2
2015-Jul-26 21:33N 37°14' E 024°54'1514.5
2015-Jul-26 20:32N 37°05' E 025°09'1010.4
2015-Jul-26 19:34N 37°07' E 025°22'9 9.0
2015-Jul-26 18:33N 36°58' E 025°21'10 9.6
2015-Jul-26 17:33N 36°52' E 025°31'8 8.0
2015-Jul-26 16:33N 36°55' E 025°40'9 2.1
2015-Jul-26 12:21N 36°50' E 025°49'1113.6
2015-Jul-26 11:32N 36°55' E 025°37'8 7.7
2015-Jul-26 10:33N 36°52' E 025°28'1515.6
2015-Jul-26 09:34N 37°06' E 025°21'1111.1
2015-Jul-26 08:33N 37°06' E 025°07'1312.7
2015-Jul-26 07:33N 37°13' E 024°54'6622.0
2015-Jul-26 04:34N 37°43' E 023°40'1413.6
2015-Jul-26 03:33N 37°57' E 023°38'0 0.0
2015-Jul-26 02:33N 37°57' E 023°38'0 0.0
2015-Jul-26 01:33N 37°57' E 023°38'0 0.0
2015-Jul-26 00:33N 37°57' E 023°38'0 0.0
2015-Jul-25 23:33N 37°57' E 023°38'0 0.0
2015-Jul-25 22:33N 37°57' E 023°38'0 0.0
2015-Jul-25 21:34N 37°57' E 023°38'0 0.0
2015-Jul-25 20:33N 37°57' E 023°38'0 0.0
2015-Jul-25 19:33N 37°57' E 023°38'0 0.0
2015-Jul-25 18:33N 37°57' E 023°38'0 0.0
2015-Jul-25 17:33N 37°57' E 023°38'3 3.2
2015-Jul-25 16:33N 37°54' E 023°38'2120.9
2015-Jul-25 15:33N 37°38' E 023°55'4522.3
2015-Jul-25 13:33N 37°31' E 024°51'7 6.6
2015-Jul-25 12:34N 37°26' E 024°57'1313.4
2015-Jul-25 11:34N 37°30' E 025°13'6 5.8
2015-Jul-25 10:34N 37°28' E 025°19'9 9.1
2015-Jul-25 09:33N 37°32' E 025°09'1211.8
2015-Jul-25 08:33N 37°26' E 024°57'5719.0
2015-Jul-25 05:33N 37°39' E 023°46'1918.7
2015-Jul-25 04:33N 37°57' E 023°38'0 0.0
2015-Jul-25 03:33N 37°57' E 023°38'0 0.0
2015-Jul-25 02:33N 37°57' E 023°38'0 0.0
2015-Jul-25 01:33N 37°57' E 023°38'0 0.0
2015-Jul-25 00:33N 37°57' E 023°38'0 0.0
2015-Jul-24 23:33N 37°57' E 023°38'0 0.0
2015-Jul-24 22:33N 37°57' E 023°38'0 0.0
2015-Jul-24 21:33N 37°57' E 023°38'0 0.0
2015-Jul-24 20:33N 37°57' E 023°38'0 0.0
2015-Jul-24 19:33N 37°57' E 023°38'0 0.0
2015-Jul-24 18:33N 37°57' E 023°38'0 0.0
2015-Jul-24 17:33N 37°57' E 023°38'3 3.0
2015-Jul-24 16:33N 37°54' E 023°38'2121.1
2015-Jul-24 15:33N 37°38' E 023°55'4723.0
2015-Jul-24 13:30N 37°31' E 024°54'6 5.8
2015-Jul-24 12:33N 37°26' E 024°57'1413.7
2015-Jul-24 11:33N 37°30' E 025°14'5 4.7
2015-Jul-24 10:33N 37°28' E 025°19'9 9.2
2015-Jul-24 09:33N 37°32' E 025°09'1211.7
2015-Jul-24 08:33N 37°26' E 024°57'5719.0
2015-Jul-24 05:34N 37°39' E 023°46'1918.9
2015-Jul-24 04:33N 37°57' E 023°38'0 0.1
2015-Jul-24 03:33N 37°57' E 023°38'0 0.0
2015-Jul-24 02:33N 37°57' E 023°38'0 0.3
2015-Jul-24 01:33N 37°57' E 023°38'1717.4
2015-Jul-24 00:33N 37°41' E 023°47'2219.9
2015-Jul-23 23:28N 37°32' E 024°12'3719.4
2015-Jul-23 21:33N 37°14' E 024°53'1515.0
2015-Jul-23 20:32N 37°05' E 025°09'1010.5
2015-Jul-23 19:33N 37°07' E 025°22'7 7.1
2015-Jul-23 18:33N 36°60' E 025°19'1211.0
2015-Jul-23 17:29N 36°52' E 025°31'8 8.7
2015-Jul-23 16:33N 36°55' E 025°40'8 2.4
2015-Jul-23 13:13N 36°50' E 025°48'1116.7
2015-Jul-23 12:33N 36°56' E 025°36'6 5.8
2015-Jul-23 11:33N 36°52' E 025°31'1211.9
2015-Jul-23 10:33N 37°00' E 025°20'7 6.5
2015-Jul-23 09:33N 37°06' E 025°22'1010.2
2015-Jul-23 08:32N 37°05' E 025°09'2020.6
2015-Jul-23 07:34N 37°17' E 024°48'5122.1
2015-Jul-23 05:14N 37°38' E 023°49'1521.3
2015-Jul-23 04:33N 37°49' E 023°37'8 7.7
2015-Jul-23 03:33N 37°57' E 023°38'0 0.0
2015-Jul-23 02:33N 37°57' E 023°38'0 0.0
2015-Jul-23 01:33N 37°57' E 023°38'0 0.0
2015-Jul-23 00:33N 37°57' E 023°38'0 0.0
2015-Jul-22 23:33N 37°57' E 023°38'0 0.0
2015-Jul-22 22:33N 37°57' E 023°38'0 0.0
2015-Jul-22 21:33N 37°57' E 023°38'0 0.0
2015-Jul-22 20:33N 37°57' E 023°38'0 0.0
2015-Jul-22 19:33N 37°57' E 023°38'0 0.0
2015-Jul-22 18:33N 37°57' E 023°38'0 0.0
2015-Jul-22 17:31N 37°57' E 023°38'5 4.7
2015-Jul-22 16:34N 37°52' E 023°39'2220.8
2015-Jul-22 15:31N 37°37' E 023°59'4321.8
2015-Jul-22 13:33N 37°31' E 024°52'7 6.8
2015-Jul-22 12:33N 37°26' E 024°58'1313.2
2015-Jul-22 11:33N 37°29' E 025°14'5 4.7
2015-Jul-22 10:33N 37°28' E 025°19'9 9.2
2015-Jul-22 09:33N 37°32' E 025°09'1211.8
2015-Jul-22 08:33N 37°26' E 024°57'5718.9
2015-Jul-22 05:33N 37°39' E 023°47'1919.2
2015-Jul-22 04:33N 37°57' E 023°38'0 0.2
2015-Jul-22 03:33N 37°57' E 023°38'0 0.0
2015-Jul-22 02:33N 37°57' E 023°38'2 2.0
2015-Jul-22 01:33N 37°55' E 023°37'1918.5
2015-Jul-22 00:33N 37°39' E 023°49'2119.6
2015-Jul-21 23:30N 37°31' E 024°13'2518.6
2015-Jul-21 22:10N 37°21' E 024°42'1219.6
2015-Jul-21 21:33N 37°14' E 024°54'1514.8
2015-Jul-21 20:33N 37°05' E 025°09'1010.2
2015-Jul-21 19:33N 37°07' E 025°22'7 7.2
2015-Jul-21 18:34N 36°60' E 025°20'1111.1
2015-Jul-21 17:33N 36°52' E 025°31'9 8.9
2015-Jul-21 16:30N 36°54' E 025°42'8 1.8
2015-Jul-21 12:13N 36°50' E 025°50'1218.6
2015-Jul-21 11:33N 36°56' E 025°36'9 7.1
2015-Jul-21 10:17N 36°54' E 025°25'1317.4
2015-Jul-21 09:33N 37°06' E 025°22'1111.4
2015-Jul-21 08:33N 37°06' E 025°08'1312.6
2015-Jul-21 07:34N 37°13' E 024°55'6621.9
2015-Jul-21 04:33N 37°43' E 023°41'1413.9
2015-Jul-21 03:33N 37°57' E 023°38'0 0.0
2015-Jul-21 02:33N 37°57' E 023°38'0 0.0
2015-Jul-21 01:33N 37°57' E 023°38'0 0.0
2015-Jul-21 00:33N 37°57' E 023°38'0 0.0
2015-Jul-20 23:33N 37°57' E 023°38'0 0.0
2015-Jul-20 22:33N 37°57' E 023°38'0 0.0
2015-Jul-20 21:33N 37°57' E 023°38'0 0.0
2015-Jul-20 20:33N 37°57' E 023°38'0 0.0
2015-Jul-20 19:33N 37°57' E 023°38'0 0.0
2015-Jul-20 18:33N 37°57' E 023°38'0 0.0
2015-Jul-20 17:33N 37°57' E 023°38'6 5.7
2015-Jul-20 16:33N 37°51' E 023°40'6420.9
2015-Jul-20 13:29N 37°30' E 024°56'4 4.5
2015-Jul-20 12:33N 37°26' E 024°58'1313.5
2015-Jul-20 11:33N 37°29' E 025°14'4 4.3
2015-Jul-20 10:33N 37°28' E 025°19'9 9.1
2015-Jul-20 09:33N 37°32' E 025°09'1211.7
2015-Jul-20 08:33N 37°26' E 024°57'  

Dump ship's entire track history